Whiteville, Arkansas
Current Conditions -  °F | °C
As of 2:53 AM on Friday 24 Oct 2014 (Local Time) from KBPK Reporting Station
Clear Clear  
Wind Chill: 50°   Ceiling: Unl
Heat Index: 50°   Visibility: 9mi
Dew Point: 49°   Wind: 3mph
Humidity: 96%   Direction: 190°S
Pressure: 30.12"   Gusts: NA
Location:  36.3299°N, 92.4805°W
Report Text: KBPK 240753Z AUTO 19003KT 9SM CLR 10/09 A3012 RMK AO2 SLP199 T01000094
Loading
Personal Weather Stations






























Interactive Weather Map
Tropical Storm Tracking
New forecast layout! Learn more

10-Day Weather Forecast

Advertisements
Track Severe Weather on mobile